< < Back
Terminal Aerodrome Forecast


Current Version              Previous Versions:   1  2  3  4  5  6  7  8  9  

Terminal Aerodrome Forecast

338
FTUS42 KCAE 011700
TAFCAE
TAF
KCAE 011734Z 0118/0218 18010G20KT P6SM BKN050
     FM020400 20015G23KT 6SM -RA BKN025 OVC050
     FM020800 21016G25KT 4SM -RA BR SCT007 OVC015
     FM021400 27021G33KT P6SM -RA BKN035=



Latest METAR

353
SAUS80 KWBC 011800 RRM
MTRCAE
METAR KCAE 011756Z 18015G20KT 10SM SCT044 BKN180 18/06 A3014 RMK AO2
SLP205 T01830061 10183 20033 58047


USA.gov is the U.S. government's official web portal to all federal, state and local government web resources and services.